Time,TemperatureF,DewpointF,PressureIn,WindDirection,WindDirectionDegrees,WindSpeedMPH,WindSpeedGustMPH,Humidity,HourlyPrecipIn,Conditions,Clouds,dailyrainin,SoftwareType,DateUTC
2013-08-06 00:01:00,76.0,75.0,29.98,North,0,0.0,0.0,98,2.18,,,-99.99,,2013-08-06 04:01:00,
2013-08-06 00:33:00,76.0,76.0,29.98,West,259,2.0,4.0,100,2.18,,,-99.99,,2013-08-06 04:33:00,
2013-08-06 00:44:00,76.0,76.0,29.97,WSW,256,3.0,4.0,100,2.18,,,-99.99,,2013-08-06 04:44:00,
2013-08-06 00:53:00,76.0,76.0,29.97,WSW,257,3.0,4.0,100,2.18,,,-99.99,,2013-08-06 04:53:00,
2013-08-06 01:02:00,76.0,76.0,29.96,North,0,0.0,0.0,100,2.18,,,-99.99,,2013-08-06 05:02:00,
2013-08-06 01:11:00,76.0,76.0,29.96,North,0,0.0,0.0,100,2.18,,,-99.99,,2013-08-06 05:11:00,
2013-08-06 01:53:00,76.0,76.0,29.94,North,0,0.0,0.0,100,2.18,,,-99.99,,2013-08-06 05:53:00,
2013-08-06 02:11:00,76.0,76.0,29.93,North,0,0.0,0.0,100,2.18,,,-99.99,,2013-08-06 06:11:00,
2013-08-06 02:22:00,76.0,76.0,29.92,North,0,0.0,0.0,100,2.18,,,-99.99,,2013-08-06 06:22:00,
2013-08-06 02:32:00,76.0,76.0,29.92,WNW,293,2.0,4.0,100,2.18,,,-99.99,,2013-08-06 06:32:00,
2013-08-06 02:43:00,76.0,76.0,29.92,West,260,4.0,5.0,100,2.18,,,-99.99,,2013-08-06 06:43:00,
2013-08-06 02:52:00,76.0,76.0,29.92,North,0,0.0,0.0,100,2.18,,,-99.99,,2013-08-06 06:52:00,
2013-08-06 03:01:00,76.0,76.0,29.91,North,0,0.0,0.0,100,2.18,,,-99.99,,2013-08-06 07:01:00,
2013-08-06 03:12:00,76.0,76.0,29.91,North,0,0.0,0.0,100,2.18,,,-99.99,,2013-08-06 07:12:00,
2013-08-06 03:22:00,76.0,76.0,29.91,West,278,1.0,4.0,100,2.18,,,-99.99,,2013-08-06 07:22:00,
2013-08-06 03:32:00,76.0,76.0,29.91,NW,322,4.0,5.0,100,2.18,,,-99.99,,2013-08-06 07:32:00,
2013-08-06 03:43:00,76.0,76.0,29.90,NNW,333,4.0,5.0,100,2.18,,,-99.99,,2013-08-06 07:43:00,
2013-08-06 03:53:00,76.0,76.0,29.90,NNW,328,3.0,4.0,100,2.18,,,-99.99,,2013-08-06 07:53:00,
2013-08-06 04:02:00,76.0,76.0,29.90,North,354,4.0,4.0,100,2.18,,,-99.99,,2013-08-06 08:02:00,
2013-08-06 04:11:00,76.0,76.0,29.90,North,352,0.0,1.0,100,2.18,,,-99.99,,2013-08-06 08:11:00,
2013-08-06 04:22:00,76.0,76.0,29.91,North,0,0.0,0.0,100,2.18,,,-99.99,,2013-08-06 08:22:00,
2013-08-06 04:33:00,76.0,76.0,29.91,NE,35,2.0,3.0,100,2.18,,,-99.99,,2013-08-06 08:33:00,
2013-08-06 04:43:00,76.0,76.0,29.91,NE,53,2.0,3.0,100,2.18,,,-99.99,,2013-08-06 08:43:00,
2013-08-06 04:52:00,75.0,75.0,29.91,ENE,77,0.0,1.0,100,2.18,,,-99.99,,2013-08-06 08:52:00,
2013-08-06 05:01:00,75.0,75.0,29.91,NNW,347,1.0,3.0,100,2.18,,,-99.99,,2013-08-06 09:01:00,
2013-08-06 05:11:00,75.0,75.0,29.91,NNW,347,3.0,4.0,100,2.18,,,-99.99,,2013-08-06 09:11:00,
2013-08-06 05:32:00,75.0,75.0,29.91,ESE,111,3.0,4.0,100,2.18,,,-99.99,,2013-08-06 09:32:00,
2013-08-06 05:43:00,75.0,75.0,29.91,East,83,2.0,4.0,100,2.18,,,-99.99,,2013-08-06 09:43:00,
2013-08-06 05:52:00,75.0,75.0,29.91,SE,131,0.0,3.0,100,2.18,,,-99.99,,2013-08-06 09:52:00,
2013-08-06 06:32:00,75.0,75.0,29.92,ESE,114,1.0,3.0,100,2.18,,,-99.99,,2013-08-06 10:32:00,
2013-08-06 06:43:00,75.0,75.0,29.93,SE,127,2.0,4.0,100,2.18,,,-99.99,,2013-08-06 10:43:00,
2013-08-06 06:52:00,75.0,75.0,29.92,ESE,114,2.0,5.0,100,2.18,,,-99.99,,2013-08-06 10:52:00,
2013-08-06 07:32:00,75.0,75.0,29.94,East,82,0.0,3.0,100,2.18,,,-99.99,,2013-08-06 11:32:00,
2013-08-06 07:43:00,75.0,75.0,29.94,ESE,105,1.0,3.0,100,2.18,,,-99.99,,2013-08-06 11:43:00,
2013-08-06 07:53:00,75.0,75.0,29.94,ESE,108,2.0,4.0,100,2.18,,,-99.99,,2013-08-06 11:53:00,
2013-08-06 08:02:00,76.0,76.0,29.95,ESE,107,0.0,2.0,100,2.18,,,-99.99,,2013-08-06 12:02:00,
2013-08-06 08:11:00,76.0,76.0,29.95,East,96,1.0,3.0,100,2.18,,,-99.99,,2013-08-06 12:11:00,
2013-08-06 08:22:00,76.0,76.0,29.95,ESE,104,0.0,2.0,100,2.18,,,-99.99,,2013-08-06 12:22:00,
2013-08-06 08:43:00,77.0,77.0,29.95,ESE,104,2.0,5.0,100,2.18,,,-99.99,,2013-08-06 12:43:00,
2013-08-06 08:52:00,77.0,77.0,29.95,ENE,77,4.0,7.0,100,2.18,,,-99.99,,2013-08-06 12:52:00,
2013-08-06 09:02:00,78.0,78.0,29.95,East,91,5.0,8.0,100,2.18,,,-99.99,,2013-08-06 13:02:00,
2013-08-06 09:11:00,78.0,78.0,29.95,ENE,76,5.0,7.0,100,2.18,,,-99.99,,2013-08-06 13:11:00,
2013-08-06 10:01:00,83.0,76.0,29.95,ENE,60,1.0,4.0,80,2.18,,,-99.99,,2013-08-06 14:01:00,
2013-08-06 10:11:00,82.0,75.0,29.95,ENE,65,2.0,5.0,80,2.18,,,-99.99,,2013-08-06 14:11:00,
2013-08-06 10:22:00,84.0,75.0,29.95,ENE,75,3.0,5.0,75,2.18,,,-99.99,,2013-08-06 14:22:00,
2013-08-06 11:02:00,87.0,74.0,29.96,ENE,77,4.0,7.0,65,2.18,,,-99.99,,2013-08-06 15:02:00,
2013-08-06 11:33:00,89.0,74.0,29.96,East,90,0.0,5.0,61,2.18,,,-99.99,,2013-08-06 15:33:00,
2013-08-06 11:44:00,89.0,74.0,29.96,North,0,0.0,0.0,61,2.18,,,-99.99,,2013-08-06 15:44:00,
2013-08-06 11:52:00,89.0,75.0,29.96,ENE,75,2.0,7.0,63,2.18,,,-99.99,,2013-08-06 15:52:00,
2013-08-06 12:02:00,91.0,76.0,29.96,East,93,3.0,7.0,61,2.18,,,-99.99,,2013-08-06 16:02:00,
2013-08-06 12:11:00,90.0,73.0,29.95,South,173,3.0,5.0,58,2.18,,,-99.99,,2013-08-06 16:11:00,
2013-08-06 12:43:00,89.0,74.0,29.96,SSE,156,0.0,4.0,62,2.18,,,-99.99,,2013-08-06 16:43:00,
2013-08-06 12:52:00,90.0,75.0,29.96,ESE,108,2.0,7.0,61,2.18,,,-99.99,,2013-08-06 16:52:00,
2013-08-06 13:44:00,91.0,74.0,29.93,SE,124,4.0,7.0,58,2.18,,,-99.99,,2013-08-06 17:44:00,
2013-08-06 13:52:00,91.0,74.0,29.93,ESE,122,2.0,7.0,57,2.18,,,-99.99,,2013-08-06 17:52:00,
2013-08-06 14:32:00,90.0,74.0,29.93,ENE,75,2.0,5.0,59,2.18,,,-99.99,,2013-08-06 18:32:00,
2013-08-06 14:52:00,90.0,74.0,29.92,East,91,1.0,5.0,60,2.18,,,-99.99,,2013-08-06 18:52:00,
2013-08-06 15:01:00,90.0,77.0,29.92,West,263,1.0,4.0,66,2.18,,,-99.99,,2013-08-06 19:01:00,
2013-08-06 15:32:00,89.0,75.0,29.91,West,264,2.0,5.0,63,2.18,,,-99.99,,2013-08-06 19:32:00,
2013-08-06 15:42:00,91.0,75.0,29.91,East,87,2.0,7.0,60,2.18,,,-99.99,,2013-08-06 19:42:00,
2013-08-06 15:52:00,91.0,73.0,29.90,ESE,114,2.0,7.0,56,2.18,,,-99.99,,2013-08-06 19:52:00,
2013-08-06 16:32:00,94.0,72.0,29.90,ENE,73,4.0,8.0,49,2.18,,,-99.99,,2013-08-06 20:32:00,
2013-08-06 16:44:00,94.0,69.0,29.90,East,91,4.0,6.0,45,2.18,,,-99.99,,2013-08-06 20:44:00,
2013-08-06 17:43:00,94.0,72.0,29.89,East,83,7.0,10.0,49,2.18,,,-99.99,,2013-08-06 21:43:00,
2013-08-06 18:01:00,92.0,69.0,29.88,ENE,73,5.0,9.0,47,2.18,,,-99.99,,2013-08-06 22:01:00,
2013-08-06 18:11:00,92.0,72.0,29.89,East,87,4.0,6.0,53,2.18,,,-99.99,,2013-08-06 22:11:00,
2013-08-06 18:43:00,92.0,73.0,29.88,East,82,8.0,14.0,55,2.18,,,-99.99,,2013-08-06 22:43:00,
2013-08-06 19:01:00,91.0,74.0,29.91,East,87,7.0,12.0,58,2.18,,,-99.99,,2013-08-06 23:01:00,
2013-08-06 19:52:00,86.0,74.0,29.92,ENE,72,6.0,10.0,67,2.18,,,-99.99,,2013-08-06 23:52:00,
2013-08-06 20:01:00,85.0,73.0,29.91,ENE,75,6.0,10.0,68,2.18,,,-99.99,,2013-08-07 00:01:00,
2013-08-06 20:11:00,85.0,74.0,29.92,ENE,73,7.0,11.0,69,2.18,,,-99.99,,2013-08-07 00:11:00,
2013-08-06 20:21:00,84.0,72.0,29.93,ENE,76,3.0,6.0,67,2.18,,,-99.99,,2013-08-07 00:21:00,
2013-08-06 20:32:00,83.0,73.0,29.93,WSW,256,7.0,11.0,72,2.18,,,-99.99,,2013-08-07 00:32:00,
2013-08-06 20:43:00,82.0,75.0,29.93,WNW,287,7.0,12.0,79,2.18,,,-99.99,,2013-08-07 00:43:00,
2013-08-06 21:01:00,81.0,75.0,29.93,WSW,242,0.0,1.0,81,2.18,,,-99.99,,2013-08-07 01:01:00,
2013-08-06 21:11:00,81.0,74.0,29.93,North,0,0.0,0.0,80,2.18,,,-99.99,,2013-08-07 01:11:00,
2013-08-06 21:43:00,81.0,77.0,29.94,North,357,1.0,5.0,88,2.18,,,-99.99,,2013-08-07 01:43:00,
2013-08-06 21:52:00,81.0,77.0,29.94,North,356,1.0,4.0,88,2.18,,,-99.99,,2013-08-07 01:52:00,
2013-08-06 22:02:00,80.0,76.0,29.94,North,352,0.0,4.0,89,2.18,,,-99.99,,2013-08-07 02:02:00,
2013-08-06 22:11:00,80.0,76.0,29.94,ENE,62,1.0,4.0,87,2.18,,,-99.99,,2013-08-07 02:11:00,
2013-08-06 23:43:00,80.0,78.0,29.95,East,79,4.0,6.0,93,2.18,,,-99.99,,2013-08-07 03:43:00,
2013-08-06 23:52:00,80.0,77.0,29.94,ENE,65,5.0,6.0,91,2.18,,,-99.99,,2013-08-07 03:52:00,